createdAt,value
2022-07-29T00:01:43.591Z,100.00
2022-07-29T00:04:14.513Z,100.00
2022-07-29T00:06:42.494Z,100.00
2022-07-29T00:09:09.661Z,100.00
2022-07-29T00:11:36.756Z,100.00
2022-07-29T00:14:04.222Z,100.00
2022-07-29T00:16:31.828Z,100.00
2022-07-29T00:19:02.119Z,100.00
2022-07-29T00:21:30.488Z,100.00
2022-07-29T00:24:00.577Z,100.00
2022-07-29T00:26:32.568Z,100.00
2022-07-29T00:31:55.961Z,100.00
2022-07-29T00:34:41.595Z,100.00
2022-07-29T00:37:08.887Z,100.00
2022-07-29T00:39:36.103Z,100.00
2022-07-29T00:42:05.597Z,100.00
2022-07-29T00:44:41.393Z,100.00
2022-07-29T00:47:13.435Z,100.00
2022-07-29T00:49:42.476Z,100.00
2022-07-29T00:52:11.554Z,100.00
2022-07-29T00:54:44.734Z,100.00
2022-07-29T00:57:15.451Z,100.00
2022-07-29T00:59:45.599Z,100.00
2022-07-29T01:02:12.885Z,100.00
2022-07-29T01:04:40.666Z,100.00
2022-07-29T01:07:08.794Z,100.00
2022-07-29T01:09:45.541Z,100.00
2022-07-29T01:12:20.157Z,100.00
2022-07-29T01:14:49.907Z,100.00
2022-07-29T01:17:52.586Z,100.00
2022-07-29T01:20:31.483Z,100.00
2022-07-29T01:24:09.742Z,100.00
2022-07-29T01:27:33.406Z,100.00
2022-07-29T01:30:57.421Z,100.00
2022-07-29T01:34:23.719Z,100.00
2022-07-29T01:37:19.632Z,100.00
2022-07-29T01:40:43.284Z,100.00
2022-07-29T01:43:45.360Z,100.00
2022-07-29T01:47:09.122Z,100.00
2022-07-29T01:49:42.259Z,100.00
2022-07-29T01:52:20.038Z,100.00
2022-07-29T01:54:57.159Z,100.00
2022-07-29T01:58:21.481Z,100.00
2022-07-29T02:00:53.309Z,100.00
2022-07-29T02:03:22.050Z,100.00
2022-07-29T02:10:25.753Z,100.00
2022-07-29T02:12:55.482Z,100.00
2022-07-29T02:16:19.284Z,100.00
2022-07-29T02:19:43.234Z,100.00
2022-07-29T02:22:15.047Z,100.00
2022-07-29T02:24:44.787Z,100.00
2022-07-29T02:27:13.218Z,100.00
2022-07-29T02:29:41.144Z,100.00
2022-07-29T02:32:10.642Z,98.07
2022-07-29T02:34:39.689Z,93.81
2022-07-29T02:37:11.975Z,94.76
2022-07-29T02:39:42.287Z,89.13
2022-07-29T02:42:13.987Z,82.37
2022-07-29T02:44:41.170Z,77.83
2022-07-29T02:47:26.962Z,67.84
2022-07-29T02:50:10.838Z,79.69
2022-07-29T02:52:45.407Z,84.63
2022-07-29T02:55:30.851Z,88.98
2022-07-29T02:58:29.206Z,82.50
2022-07-29T03:01:03.274Z,84.11
2022-07-29T03:03:37.833Z,82.22
2022-07-29T03:06:06.878Z,71.94
2022-07-29T03:08:35.881Z,74.35
2022-07-29T03:11:06.864Z,73.90
2022-07-29T03:13:36.537Z,85.70
2022-07-29T03:16:07.167Z,79.77
2022-07-29T03:18:36.031Z,87.04
2022-07-29T03:21:04.933Z,84.22
2022-07-29T03:23:35.400Z,88.58
2022-07-29T03:26:04.075Z,86.35
2022-07-29T03:28:31.251Z,65.59
2022-07-29T03:30:58.845Z,70.40
2022-07-29T03:33:26.277Z,88.13
2022-07-29T03:35:53.323Z,89.87
2022-07-29T03:38:21.656Z,91.57
2022-07-29T03:40:59.095Z,89.32
2022-07-29T03:43:30.158Z,88.27
2022-07-29T03:45:59.903Z,90.19
2022-07-29T03:48:30.261Z,91.55
2022-07-29T03:50:58.754Z,88.37
2022-07-29T03:53:25.967Z,76.08
2022-07-29T03:56:00.414Z,88.71
2022-07-29T03:58:31.055Z,86.50
2022-07-29T04:00:59.619Z,85.45
2022-07-29T04:03:26.840Z,92.00
2022-07-29T04:06:07.043Z,94.53
2022-07-29T04:08:35.169Z,86.12
2022-07-29T04:11:03.386Z,88.85
2022-07-29T04:13:34.074Z,86.15
2022-07-29T04:16:01.180Z,84.71
2022-07-29T04:18:28.791Z,89.40
2022-07-29T04:20:56.287Z,89.37
2022-07-29T04:23:27.374Z,87.21
2022-07-29T04:25:54.840Z,87.06
2022-07-29T04:28:22.131Z,84.98
2022-07-29T04:30:49.326Z,82.94
2022-07-29T04:33:22.970Z,80.12
2022-07-29T04:35:55.101Z,85.62
2022-07-29T04:38:23.128Z,87.22
2022-07-29T04:40:50.164Z,88.17
2022-07-29T04:43:22.487Z,89.59
2022-07-29T04:45:50.593Z,82.78
2022-07-29T04:48:17.691Z,87.70
2022-07-29T04:50:45.219Z,89.57
2022-07-29T04:53:12.227Z,87.59
2022-07-29T04:55:39.294Z,86.84
2022-07-29T04:58:09.294Z,87.66
2022-07-29T05:00:36.401Z,81.80
2022-07-29T05:03:04.545Z,86.24
2022-07-29T05:05:31.704Z,87.12
2022-07-29T05:07:59.809Z,85.55
2022-07-29T05:10:27.059Z,80.93
2022-07-29T05:12:54.173Z,87.21
2022-07-29T05:15:21.381Z,86.44
2022-07-29T05:17:50.951Z,86.34
2022-07-29T05:20:19.724Z,83.89
2022-07-29T05:22:47.278Z,81.01
2022-07-29T05:25:16.632Z,84.38
2022-07-29T05:27:47.920Z,84.46
2022-07-29T05:30:18.523Z,84.19
2022-07-29T05:32:46.687Z,84.15
2022-07-29T05:35:15.077Z,85.34
2022-07-29T05:37:42.508Z,83.41
2022-07-29T05:40:10.202Z,81.42
2022-07-29T05:42:37.350Z,83.21
2022-07-29T05:45:06.132Z,82.85
2022-07-29T05:47:34.904Z,82.02
2022-07-29T05:50:01.969Z,82.66
2022-07-29T05:52:29.239Z,81.75
2022-07-29T05:54:57.292Z,82.71
2022-07-29T05:57:25.235Z,80.66
2022-07-29T05:59:52.661Z,78.74
2022-07-29T06:02:19.912Z,80.64
2022-07-29T06:04:47.253Z,80.06
2022-07-29T06:07:14.385Z,82.25
2022-07-29T06:09:41.416Z,83.25
2022-07-29T06:12:09.677Z,81.42
2022-07-29T06:14:36.953Z,82.46
2022-07-29T06:17:04.293Z,81.66
2022-07-29T06:19:31.411Z,81.00
2022-07-29T06:21:58.443Z,80.36
2022-07-29T06:24:25.678Z,80.67
2022-07-29T06:26:58.652Z,78.38
2022-07-29T06:29:25.811Z,77.32
2022-07-29T06:31:52.955Z,74.95
2022-07-29T06:34:20.453Z,74.73
2022-07-29T06:36:47.897Z,74.40
2022-07-29T06:39:15.945Z,74.03
2022-07-29T06:41:43.165Z,73.77
2022-07-29T06:44:15.061Z,73.55
2022-07-29T06:46:42.689Z,70.76
2022-07-29T06:49:10.202Z,69.97
2022-07-29T06:51:37.347Z,71.76
2022-07-29T06:54:08.978Z,70.14
2022-07-29T06:56:40.620Z,68.83
2022-07-29T06:59:10.037Z,68.79
2022-07-29T07:01:44.237Z,66.48
2022-07-29T07:04:12.417Z,66.80
2022-07-29T07:06:40.077Z,66.76
2022-07-29T07:09:07.361Z,65.84
2022-07-29T07:11:34.833Z,67.04
2022-07-29T07:14:03.928Z,66.78
2022-07-29T07:16:32.837Z,67.14
2022-07-29T07:19:00.949Z,64.56
2022-07-29T07:21:30.187Z,65.60
2022-07-29T07:23:57.827Z,66.42
2022-07-29T07:26:24.847Z,63.83
2022-07-29T07:28:52.284Z,63.52
2022-07-29T07:31:19.615Z,61.79
2022-07-29T07:33:46.705Z,64.56
2022-07-29T07:36:13.784Z,64.00
2022-07-29T07:38:43.902Z,63.59
2022-07-29T07:41:10.948Z,63.82
2022-07-29T07:43:47.173Z,63.39
2022-07-29T07:46:17.130Z,62.32
2022-07-29T07:48:44.599Z,62.35
2022-07-29T07:51:12.570Z,62.65
2022-07-29T07:53:39.663Z,62.34
2022-07-29T07:56:12.455Z,61.86
2022-07-29T07:58:45.560Z,60.86
2022-07-29T08:01:12.730Z,59.76
2022-07-29T08:03:39.964Z,58.65
2022-07-29T08:06:09.743Z,61.81
2022-07-29T08:08:36.853Z,61.84
2022-07-29T08:11:09.084Z,61.05
2022-07-29T08:13:38.629Z,59.80
2022-07-29T08:16:16.104Z,59.16
2022-07-29T08:18:45.721Z,59.34
2022-07-29T08:21:16.681Z,58.27
2022-07-29T08:23:57.770Z,58.36
2022-07-29T08:26:26.110Z,58.28
2022-07-29T08:28:53.449Z,58.52
2022-07-29T08:31:20.975Z,57.62
2022-07-29T08:33:48.104Z,56.10
2022-07-29T08:36:18.162Z,55.91
2022-07-29T08:38:45.234Z,55.17
2022-07-29T08:41:12.395Z,56.14
2022-07-29T08:43:41.961Z,54.32
2022-07-29T08:46:09.162Z,53.81
2022-07-29T08:48:37.619Z,53.69
2022-07-29T08:51:06.079Z,53.30
2022-07-29T08:53:34.034Z,52.55
2022-07-29T08:56:05.263Z,52.22
2022-07-29T08:58:36.847Z,53.23
2022-07-29T09:01:07.797Z,52.37
2022-07-29T09:03:41.743Z,52.88
2022-07-29T09:06:14.960Z,54.53
2022-07-29T09:08:42.950Z,53.47
2022-07-29T09:11:12.455Z,53.43
2022-07-29T09:13:42.335Z,50.59
2022-07-29T09:16:12.209Z,49.97
2022-07-29T09:18:43.416Z,51.12
2022-07-29T09:21:36.795Z,50.31
2022-07-29T09:24:13.928Z,49.98
2022-07-29T09:26:46.997Z,48.97
2022-07-29T09:29:17.061Z,50.20
2022-07-29T09:31:48.318Z,48.41
2022-07-29T09:34:23.756Z,47.38
2022-07-29T09:36:55.075Z,46.27
2022-07-29T09:39:36.746Z,46.12
2022-07-29T09:42:06.911Z,45.65
2022-07-29T09:44:51.470Z,44.26
2022-07-29T09:47:26.887Z,43.72
2022-07-29T09:50:05.981Z,44.14
2022-07-29T09:52:33.033Z,44.75
2022-07-29T09:55:08.664Z,43.88
2022-07-29T09:57:35.856Z,44.47
2022-07-29T10:00:15.798Z,44.07
2022-07-29T10:02:50.435Z,44.22
2022-07-29T10:05:27.391Z,43.06
2022-07-29T10:08:04.401Z,42.35
2022-07-29T10:10:38.128Z,41.43
2022-07-29T10:13:16.373Z,40.79
2022-07-29T10:15:47.299Z,41.34
2022-07-29T10:18:20.128Z,40.25
2022-07-29T10:20:57.173Z,42.23
2022-07-29T10:23:25.099Z,42.60
2022-07-29T10:25:52.154Z,41.70
2022-07-29T10:28:22.169Z,40.18
2022-07-29T10:30:52.652Z,38.95
2022-07-29T10:33:44.793Z,38.95
2022-07-29T10:36:43.700Z,39.83
2022-07-29T10:40:29.269Z,39.92
2022-07-29T10:43:52.863Z,39.04
2022-07-29T10:46:22.386Z,41.52
2022-07-29T10:49:49.212Z,44.33
2022-07-29T10:53:14.388Z,44.41
2022-07-29T10:55:43.737Z,43.64
2022-07-29T10:59:08.737Z,43.98
2022-07-29T11:02:41.929Z,43.41
2022-07-29T11:05:13.027Z,44.23
2022-07-29T11:08:39.010Z,45.61
2022-07-29T11:12:04.404Z,45.45
2022-07-29T11:15:02.577Z,44.29
2022-07-29T11:17:46.984Z,44.01
2022-07-29T11:21:13.916Z,44.53
2022-07-29T11:24:50.286Z,47.11
2022-07-29T11:27:46.083Z,46.77
2022-07-29T11:30:14.523Z,71.50
2022-07-29T11:32:48.775Z,100.00
2022-07-29T11:35:37.998Z,100.00
2022-07-29T11:38:32.090Z,100.00
2022-07-29T11:41:20.860Z,100.00
2022-07-29T11:43:56.394Z,100.00
2022-07-29T11:46:50.472Z,100.00
2022-07-29T11:52:11.681Z,100.00
2022-07-29T11:54:58.365Z,100.00
2022-07-29T11:57:36.434Z,100.00
2022-07-29T12:00:12.041Z,100.00
2022-07-29T12:02:43.131Z,100.00
2022-07-29T12:05:11.948Z,100.00
2022-07-29T12:07:03.710Z,100.00
2022-07-29T12:08:22.857Z,100.00
2022-07-29T12:10:51.600Z,100.00
2022-07-29T12:13:42.939Z,100.00
2022-07-29T12:17:30.627Z,100.00
2022-07-29T12:24:50.122Z,100.00
2022-07-29T12:28:27.465Z,100.00
2022-07-29T12:30:56.718Z,100.00
2022-07-29T12:33:32.195Z,100.00
2022-07-29T12:36:07.532Z,100.00
2022-07-29T12:38:36.958Z,100.00
2022-07-29T12:41:05.280Z,100.00
2022-07-29T12:43:35.934Z,100.00
2022-07-29T12:46:15.597Z,100.00
2022-07-29T12:48:44.823Z,100.00
2022-07-29T12:51:17.758Z,100.00
2022-07-29T12:54:06.393Z,100.00
2022-07-29T12:56:44.362Z,100.00
2022-07-29T12:59:13.849Z,100.00
2022-07-29T13:01:45.118Z,97.52
2022-07-29T13:04:25.578Z,95.47
2022-07-29T13:07:54.937Z,97.55
2022-07-29T13:10:19.559Z,92.61
2022-07-29T13:13:29.740Z,88.52
2022-07-29T13:16:34.729Z,89.53
2022-07-29T13:19:12.185Z,86.57
2022-07-29T13:22:17.368Z,85.23
2022-07-29T13:25:22.254Z,87.64
2022-07-29T13:27:49.730Z,86.79
2022-07-29T13:30:54.952Z,83.09
2022-07-29T13:34:05.547Z,85.82
2022-07-29T13:37:10.768Z,87.90
2022-07-29T13:39:42.369Z,85.29
2022-07-29T13:43:03.017Z,85.55
2022-07-29T13:45:31.505Z,85.23
2022-07-29T13:48:36.625Z,85.26
2022-07-29T13:51:44.731Z,83.58
2022-07-29T13:54:12.197Z,86.60
2022-07-29T13:56:40.606Z,85.75
2022-07-29T13:59:11.523Z,81.28
2022-07-29T14:02:17.283Z,84.25
2022-07-29T14:04:44.728Z,82.44
2022-07-29T14:07:16.271Z,85.44
2022-07-29T14:09:46.990Z,86.49
2022-07-29T14:12:14.519Z,82.83
2022-07-29T14:14:44.868Z,80.20
2022-07-29T14:17:16.233Z,82.62
2022-07-29T14:19:44.185Z,83.96
2022-07-29T14:22:12.082Z,81.97
2022-07-29T14:24:40.236Z,80.39
2022-07-29T14:27:09.011Z,80.07
2022-07-29T14:29:38.810Z,79.42
2022-07-29T14:32:11.141Z,79.46
2022-07-29T14:34:39.374Z,76.38
2022-07-29T14:37:07.741Z,77.33
2022-07-29T14:39:42.860Z,76.44
2022-07-29T14:42:13.132Z,79.05
2022-07-29T14:44:43.378Z,79.21
2022-07-29T14:47:12.487Z,75.72
2022-07-29T14:49:40.224Z,79.14
2022-07-29T14:52:10.610Z,78.87
2022-07-29T14:54:38.166Z,79.04
2022-07-29T14:57:07.828Z,76.12
2022-07-29T14:59:35.773Z,75.47
2022-07-29T15:02:03.877Z,76.52
2022-07-29T15:04:31.677Z,77.99
2022-07-29T15:06:59.105Z,79.00
2022-07-29T15:09:26.514Z,78.64
2022-07-29T15:11:56.936Z,77.12
2022-07-29T15:14:24.560Z,78.77
2022-07-29T15:16:52.754Z,75.12
2022-07-29T15:19:20.798Z,77.79
2022-07-29T15:21:49.200Z,75.95
2022-07-29T15:24:20.097Z,76.78
2022-07-29T15:26:48.492Z,77.11
2022-07-29T15:29:19.416Z,76.51
2022-07-29T15:31:47.239Z,78.62
2022-07-29T15:34:17.572Z,78.12
2022-07-29T15:36:53.318Z,76.15
2022-07-29T15:39:22.412Z,76.88
2022-07-29T15:41:52.760Z,74.10
2022-07-29T15:44:20.998Z,75.93
2022-07-29T15:47:04.385Z,75.99
2022-07-29T15:49:47.887Z,77.77
2022-07-29T15:52:24.749Z,76.10
2022-07-29T15:54:57.696Z,77.10
2022-07-29T15:57:29.940Z,71.10
2022-07-29T15:59:57.422Z,75.34
2022-07-29T16:02:27.113Z,75.87
2022-07-29T16:04:55.066Z,74.48
2022-07-29T16:07:22.559Z,72.96
2022-07-29T16:09:53.319Z,75.73
2022-07-29T16:12:20.977Z,75.81
2022-07-29T16:14:49.483Z,73.65
2022-07-29T16:17:17.734Z,74.78
2022-07-29T16:19:46.119Z,71.46
2022-07-29T16:22:18.871Z,73.26
2022-07-29T16:24:49.334Z,75.04
2022-07-29T16:27:27.044Z,70.63
2022-07-29T16:30:09.520Z,73.36
2022-07-29T16:32:40.193Z,74.00
2022-07-29T16:35:08.464Z,68.55
2022-07-29T16:37:37.093Z,67.74
2022-07-29T16:40:05.182Z,63.49
2022-07-29T16:42:46.439Z,59.96
2022-07-29T16:45:16.359Z,61.62
2022-07-29T16:47:45.638Z,63.68
2022-07-29T16:50:13.420Z,62.00
2022-07-29T16:52:41.242Z,78.57
2022-07-29T16:55:08.966Z,79.94
2022-07-29T16:57:36.841Z,86.17
2022-07-29T17:00:11.330Z,76.68
2022-07-29T17:02:39.161Z,83.20
2022-07-29T17:05:10.770Z,82.46
2022-07-29T17:07:43.833Z,85.47
2022-07-29T17:10:11.387Z,75.18
2022-07-29T17:12:43.055Z,83.54
2022-07-29T17:15:12.999Z,79.93
2022-07-29T17:17:55.236Z,75.19
2022-07-29T17:20:24.572Z,75.90
2022-07-29T17:22:52.515Z,77.84
2022-07-29T17:25:21.334Z,78.30
2022-07-29T17:27:50.770Z,78.86
2022-07-29T17:30:18.883Z,80.27
2022-07-29T17:32:46.501Z,82.11
2022-07-29T17:35:32.687Z,82.75
2022-07-29T17:38:00.235Z,81.28
2022-07-29T17:40:27.926Z,83.09
2022-07-29T17:42:55.590Z,77.88
2022-07-29T17:45:24.589Z,80.52
2022-07-29T17:47:52.044Z,82.01
2022-07-29T17:50:19.523Z,79.39
2022-07-29T17:52:47.029Z,82.67
2022-07-29T17:55:14.488Z,77.14
2022-07-29T17:57:42.295Z,80.53
2022-07-29T18:00:10.851Z,79.33
2022-07-29T18:02:38.598Z,78.93
2022-07-29T18:05:06.280Z,78.14
2022-07-29T18:07:33.752Z,77.75
2022-07-29T18:10:01.388Z,78.46
2022-07-29T18:12:28.857Z,74.38
2022-07-29T18:14:56.289Z,75.13
2022-07-29T18:17:52.730Z,74.50
2022-07-29T18:20:13.990Z,74.80
2022-07-29T18:22:44.253Z,72.65
2022-07-29T18:25:11.889Z,73.05
2022-07-29T18:27:41.871Z,73.96
2022-07-29T18:30:09.648Z,72.69
2022-07-29T18:32:40.032Z,73.39
2022-07-29T18:35:10.647Z,75.71
2022-07-29T18:38:01.264Z,75.90
2022-07-29T18:40:26.482Z,77.11
2022-07-29T18:42:57.164Z,77.75
2022-07-29T18:45:28.485Z,78.19
2022-07-29T18:47:56.989Z,80.45
2022-07-29T18:50:29.533Z,81.95
2022-07-29T18:52:58.829Z,81.96
2022-07-29T18:55:32.139Z,82.49
2022-07-29T18:58:02.917Z,82.11
2022-07-29T19:00:30.884Z,82.79
2022-07-29T19:02:58.793Z,82.60
2022-07-29T19:05:26.480Z,83.42
2022-07-29T19:07:56.024Z,84.61
2022-07-29T19:10:23.641Z,86.52
2022-07-29T19:12:51.329Z,88.84
2022-07-29T19:15:20.260Z,89.72
2022-07-29T19:17:51.268Z,89.33
2022-07-29T19:20:19.189Z,87.64
2022-07-29T19:22:49.631Z,87.58
2022-07-29T19:25:19.749Z,86.64
2022-07-29T19:27:47.404Z,86.88
2022-07-29T19:30:15.944Z,85.88
2022-07-29T19:32:43.697Z,85.63
2022-07-29T19:35:30.319Z,85.25
2022-07-29T19:38:00.087Z,86.09
2022-07-29T19:40:28.798Z,86.14
2022-07-29T19:42:56.664Z,84.33
2022-07-29T19:45:24.866Z,85.34
2022-07-29T19:48:01.685Z,84.79
2022-07-29T19:50:29.688Z,84.08
2022-07-29T19:52:57.527Z,84.67
2022-07-29T19:55:25.141Z,84.85
2022-07-29T19:57:52.725Z,83.09
2022-07-29T20:00:21.403Z,80.29
2022-07-29T20:02:50.845Z,82.41
2022-07-29T20:05:21.067Z,83.78
2022-07-29T20:07:58.542Z,81.50
2022-07-29T20:10:26.154Z,82.85
2022-07-29T20:12:55.018Z,77.84
2022-07-29T20:15:22.983Z,81.44
2022-07-29T20:17:55.165Z,80.10
2022-07-29T20:20:25.194Z,81.93
2022-07-29T20:22:55.126Z,81.75
2022-07-29T20:25:23.126Z,81.83
2022-07-29T20:27:52.392Z,80.93
2022-07-29T20:30:22.618Z,82.19
2022-07-29T20:32:51.234Z,85.64
2022-07-29T20:35:56.659Z,85.61
2022-07-29T20:39:04.771Z,82.29
2022-07-29T20:41:37.521Z,85.40
2022-07-29T20:44:05.361Z,83.38
2022-07-29T20:47:10.721Z,84.15
2022-07-29T20:50:15.995Z,85.22
2022-07-29T20:52:44.130Z,86.48
2022-07-29T20:55:49.318Z,83.44
2022-07-29T20:58:54.418Z,87.34
2022-07-29T21:01:22.099Z,87.87
2022-07-29T21:04:30.629Z,84.42
2022-07-29T21:07:00.430Z,86.75
2022-07-29T21:09:28.352Z,84.48
2022-07-29T21:12:33.834Z,88.08
2022-07-29T21:15:38.991Z,86.18
2022-07-29T21:18:16.114Z,83.57
2022-07-29T21:21:21.752Z,86.76
2022-07-29T21:23:49.235Z,86.46
2022-07-29T21:26:18.293Z,87.96
2022-07-29T21:28:45.944Z,88.67
2022-07-29T21:31:20.180Z,86.27
2022-07-29T21:34:28.468Z,87.79
2022-07-29T21:36:55.963Z,86.73
2022-07-29T21:39:23.749Z,87.68
2022-07-29T21:41:54.282Z,87.47
2022-07-29T21:44:23.285Z,84.40
2022-07-29T21:46:50.749Z,84.29
2022-07-29T21:49:18.540Z,84.05
2022-07-29T21:51:46.055Z,80.52
2022-07-29T21:54:13.536Z,84.25
2022-07-29T21:56:41.525Z,84.82
2022-07-29T21:59:09.687Z,84.40
2022-07-29T22:01:39.195Z,85.02
2022-07-29T22:04:07.186Z,84.53
2022-07-29T22:06:34.654Z,84.25
2022-07-29T22:09:05.821Z,83.67
2022-07-29T22:11:33.303Z,84.36
2022-07-29T22:14:00.734Z,86.73
2022-07-29T22:16:28.235Z,84.83
2022-07-29T22:18:55.914Z,83.91
2022-07-29T22:22:01.444Z,81.14
2022-07-29T22:25:07.248Z,83.69
2022-07-29T22:28:12.745Z,81.10
2022-07-29T22:30:42.835Z,81.59
2022-07-29T22:33:17.824Z,82.15
2022-07-29T22:35:48.554Z,81.65
2022-07-29T22:38:20.268Z,80.37
2022-07-29T22:41:25.391Z,82.56
2022-07-29T22:44:30.568Z,84.75
2022-07-29T22:47:38.960Z,84.41
2022-07-29T22:50:14.313Z,82.34
2022-07-29T22:53:19.631Z,79.66
2022-07-29T22:56:25.367Z,82.35
2022-07-29T22:58:55.393Z,82.87
2022-07-29T23:01:37.105Z,79.38
2022-07-29T23:04:06.327Z,82.65
2022-07-29T23:07:11.442Z,83.04
2022-07-29T23:09:39.807Z,85.46
2022-07-29T23:12:44.929Z,86.05
2022-07-29T23:15:14.973Z,79.73
2022-07-29T23:18:20.142Z,79.08
2022-07-29T23:20:47.559Z,84.01
2022-07-29T23:23:18.037Z,82.62
2022-07-29T23:25:45.571Z,82.71
2022-07-29T23:28:14.175Z,85.91
2022-07-29T23:30:42.396Z,79.87
2022-07-29T23:33:48.297Z,82.59
2022-07-29T23:36:20.755Z,81.32
2022-07-29T23:39:28.401Z,78.87
2022-07-29T23:41:55.876Z,82.98
2022-07-29T23:44:23.418Z,87.34
2022-07-29T23:46:56.433Z,84.05
2022-07-29T23:50:04.156Z,86.16
2022-07-29T23:53:09.487Z,85.51
2022-07-29T23:56:14.904Z,87.47
2022-07-29T23:59:20.533Z,79.68
